Terminal Aerodrome Forecast
Issued by NWS

Home | Current Version | Previous Version | Text Only | Print | Product List | Glossary On
Versions: 1 2 3 4 5 6 7 8 9 10 11 12 13 14 15 16 17 18 19 20 21 22 23 24 25 26 27 28 29
000
FTUS43 KDLH 170620 AAA
TAFHIB
TAF AMD
KHIB 170620Z 1706/1806 VRB04KT P6SM OVC009
     FM170900 VRB03KT P6SM OVC008
     FM171100 VRB02KT 4SM BR BKN005
     FM171600 22004KT P6SM BKN005
     FM172000 23005KT P6SM BKN012
     FM172200 22005KT P6SM SCT015=

USA.gov is the U.S. government's official web portal to all federal, state and local government web resources and services.